Time;durP1;ratioP1;P1;durP2;ratioP2;P2;SDS_P1;SDS_P2;PMS_P1;PMS_P2;Temp;Humidity;BMP_temperature;BMP_pressure;BME280_temperature;BME280_humidity;BME280_pressure;Samples;Min_cycle;Max_cycle;Signal;HPM_P1;HPM_P2
2023/06/20 00:02:54;;;;;;;;;;;;;;;;;;;;;
2023/06/20 00:08:04;;;;;;;17.70;14.60;;;;;;;17.50;67.40;98742.19;222228;1299;22582;-73
2023/06/20 00:13:07;;;;;;;19.30;13.70;;;;;;;17.44;67.56;98743.34;222243;1302;22580;-73
2023/06/20 00:18:10;;;;;;;16.70;14.70;;;;;;;17.38;67.57;98744.48;222192;1301;22569;-73
2023/06/20 00:23:24;;;;;;;18.40;14.20;;;;;;;17.33;67.53;98744.22;222232;1298;22723;-73
2023/06/20 00:28:29;;;;;;;16.80;13.60;;;;;;;17.28;67.86;98742.29;222199;1302;22562;-73
2023/06/20 00:33:36;;;;;;;16.80;14.40;;;;;;;17.22;68.29;98734.77;222096;1301;22595;-73
2023/06/20 00:38:48;;;;;;;17.10;13.90;;;;;;;17.15;68.30;98734.51;222185;1298;22669;-73
2023/06/20 00:44:02;;;;;;;17.20;14.30;;;;;;;17.07;68.73;98734.68;222232;1302;25594;-73
2023/06/20 00:49:06;;;;;;;17.90;14.40;;;;;;;16.98;68.81;98741.19;222205;1298;24670;-73
2023/06/20 00:54:53;;;;;;;;;;;;;;;;;;;;;
2023/06/20 01:00:13;;;;;;;23.60;14.60;;;;;;;16.80;69.45;98743.27;222239;1302;22589;-73
2023/06/20 01:05:30;;;;;;;19.00;15.70;;;;;;;16.73;69.60;98742.50;222147;1302;22568;-73
2023/06/20 01:11:14;;;;;;;19.60;14.90;;;;;;;16.66;69.86;98742.14;222170;1302;22574;-73
2023/06/20 01:17:01;;;;;;;18.20;15.30;;;;;;;16.57;70.18;98741.05;222143;1302;22583;-73
2023/06/20 01:22:10;;;;;;;22.40;16.00;;;;;;;16.49;70.49;98742.55;221927;1302;22577;-73
2023/06/20 01:28:08;;;;;;;24.70;16.00;;;;;;;16.44;70.51;98737.80;222133;1302;22566;-73
2023/06/20 01:33:20;;;;;;;20.10;15.80;;;;;;;16.38;70.87;98732.13;222032;1301;22569;-73
2023/06/20 01:38:26;;;;;;;18.60;15.50;;;;;;;16.32;70.97;98733.73;222260;1302;25388;-72
2023/06/20 01:43:31;;;;;;;20.70;15.50;;;;;;;16.25;71.13;98734.33;222253;1295;25393;-72
2023/06/20 01:48:39;;;;;;;19.00;15.60;;;;;;;16.18;71.06;98736.27;222244;1302;22573;-73
2023/06/20 01:54:15;;;;;;;17.30;15.50;;;;;;;16.10;71.55;98737.75;222268;1298;24493;-72
2023/06/20 01:59:21;;;;;;;20.70;15.40;;;;;;;16.03;71.74;98738.41;222198;1302;22567;-73
2023/06/20 02:04:26;;;;;;;17.70;14.90;;;;;;;15.95;71.67;98737.16;222159;1298;22927;-73
2023/06/20 02:09:42;;;;;;;19.10;16.10;;;;;;;15.85;72.01;98736.27;222321;1295;22573;-72
2023/06/20 02:14:51;;;;;;;18.50;16.00;;;;;;;15.78;72.47;98736.05;222234;1284;22578;-72
2023/06/20 02:19:53;;;;;;;20.10;14.20;;;;;;;15.71;72.76;98734.45;222139;1285;22580;-73
2023/06/20 02:25:04;;;;;;;17.70;15.70;;;;;;;15.65;72.92;98740.83;222135;1302;22549;-73
2023/06/20 02:30:09;;;;;;;20.50;16.50;;;;;;;15.61;73.35;98742.99;222184;1301;22604;-73
2023/06/20 02:35:41;;;;;;;22.30;17.10;;;;;;;15.56;73.60;98739.78;222225;1302;22581;-73
2023/06/20 02:41:34;;;;;;;25.40;16.90;;;;;;;15.53;74.05;98739.48;222188;1302;22564;-72
2023/06/20 02:47:06;;;;;;;19.90;16.90;;;;;;;15.50;74.25;98738.61;222263;1280;22695;-73
2023/06/20 02:52:49;;;;;;;20.20;17.90;;;;;;;15.48;74.44;98743.88;222177;1301;22573;-73
2023/06/20 02:58:07;;;;;;;23.10;18.70;;;;;;;15.48;74.56;98737.14;222154;1302;22565;-72
2023/06/20 03:03:18;;;;;;;19.30;17.10;;;;;;;15.47;74.59;98744.94;222179;1302;22621;-72
2023/06/20 03:08:38;;;;;;;23.20;17.50;;;;;;;15.48;74.70;98747.11;222259;1295;22594;-73
2023/06/20 03:14:03;;;;;;;23.00;17.90;;;;;;;15.50;74.83;98746.92;222184;1302;23042;-73
2023/06/20 03:19:20;;;;;;;49.80;36.40;;;;;;;15.56;74.78;98748.98;222183;1301;22578;-73
2023/06/20 03:24:25;;;;;;;21.20;18.80;;;;;;;15.81;74.94;98747.65;222063;1298;22591;-73
2023/06/20 03:29:31;;;;;;;22.50;18.50;;;;;;;16.14;74.94;98745.61;222207;1301;25329;-73
2023/06/20 03:34:51;;;;;;;21.70;18.50;;;;;;;16.52;74.64;98739.37;222015;1302;22588;-73
2023/06/20 03:40:03;;;;;;;22.80;17.30;;;;;;;16.92;74.16;98743.66;222238;1302;24289;-75
2023/06/20 03:45:18;;;;;;;19.00;17.00;;;;;;;17.28;73.70;98745.74;222236;1295;22569;-74
2023/06/20 03:50:24;;;;;;;19.10;17.00;;;;;;;17.67;73.20;98757.43;222284;1295;23135;-73
2023/06/20 03:55:29;;;;;;;19.60;16.70;;;;;;;17.98;72.56;98758.61;222254;1295;22576;-73
2023/06/20 04:00:43;;;;;;;19.20;17.30;;;;;;;18.27;72.44;98762.71;222208;1302;22572;-73
2023/06/20 04:06:19;;;;;;;21.10;17.80;;;;;;;18.46;71.61;98762.01;222216;1302;22562;-73
2023/06/20 04:11:22;;;;;;;20.10;17.60;;;;;;;18.53;71.44;98762.30;222272;1295;22618;-73
2023/06/20 04:16:36;;;;;;;23.70;18.50;;;;;;;18.58;71.19;98760.89;222217;1302;22678;-73
2023/06/20 04:21:50;;;;;;;22.50;18.90;;;;;;;18.69;71.42;98754.91;222219;1298;25125;-73
2023/06/20 04:26:56;;;;;;;21.80;18.30;;;;;;;18.82;71.31;98761.89;222196;1302;24285;-73
2023/06/20 04:32:07;;;;;;;19.90;17.40;;;;;;;18.96;71.18;98763.98;222182;1298;22569;-73
2023/06/20 04:37:10;;;;;;;24.10;19.30;;;;;;;19.07;71.11;98767.39;222150;1301;22580;-73
2023/06/20 04:42:12;;;;;;;21.30;18.20;;;;;;;19.21;71.13;98768.04;222252;1299;22647;-73
2023/06/20 04:47:15;;;;;;;22.80;19.50;;;;;;;19.34;71.09;98770.22;222172;1301;22552;-74
2023/06/20 04:52:20;;;;;;;23.50;19.20;;;;;;;19.45;71.05;98769.20;222136;1298;22580;-73
2023/06/20 04:57:33;;;;;;;21.70;19.00;;;;;;;19.55;71.05;98765.90;222138;1302;22576;-73
2023/06/20 05:02:42;;;;;;;21.20;18.90;;;;;;;19.62;70.93;98764.45;222105;1302;22565;-73
2023/06/20 05:08:01;;;;;;;20.10;17.90;;;;;;;19.69;71.12;98770.73;222000;1302;22615;-73
2023/06/20 05:13:05;;;;;;;23.10;18.10;;;;;;;19.75;71.18;98768.27;222240;1298;22599;-72
2023/06/20 05:18:12;;;;;;;23.10;17.80;;;;;;;19.91;71.42;98769.56;222179;1280;24251;-72
2023/06/20 05:23:14;;;;;;;21.40;16.10;;;;;;;20.13;71.49;98770.27;222286;1299;22570;-75
2023/06/20 05:28:17;;;;;;;18.40;14.90;;;;;;;20.36;70.96;98776.94;222284;1295;22575;-74
2023/06/20 05:33:40;;;;;;;17.80;14.50;;;;;;;20.63;70.66;98777.29;222203;1296;26236;-74
2023/06/20 05:38:51;;;;;;;17.10;13.10;;;;;;;20.92;70.06;98777.26;221738;1285;22588;-74
2023/06/20 05:43:56;;;;;;;18.90;12.90;;;;;;;21.20;69.14;98772.62;221997;1301;22910;-72
2023/06/20 05:49:03;;;;;;;20.90;12.80;;;;;;;21.51;68.37;98780.50;221752;1296;22733;-74
2023/06/20 05:54:08;;;;;;;18.00;13.40;;;;;;;21.81;67.72;98780.20;221997;1301;22582;-73
2023/06/20 05:59:13;;;;;;;17.80;13.40;;;;;;;22.08;67.32;98780.19;221824;1288;25412;-73
2023/06/20 06:04:16;;;;;;;20.40;14.00;;;;;;;22.33;66.76;98783.10;221499;1289;24941;-73
2023/06/20 06:09:20;;;;;;;15.90;13.00;;;;;;;22.55;66.11;98780.48;221538;1292;137895;-73
2023/06/20 06:14:22;;;;;;;13.50;12.10;;;;;;;22.80;65.44;98785.45;221458;1280;165588;-72
2023/06/20 06:19:27;;;;;;;15.90;12.60;;;;;;;23.07;65.18;98784.63;221551;1286;138292;-73
2023/06/20 06:24:33;;;;;;;20.20;13.40;;;;;;;23.32;64.86;98788.02;221475;1295;138293;-73
2023/06/20 06:29:35;;;;;;;17.10;13.10;;;;;;;23.58;64.34;98789.74;221244;1284;138288;-72
2023/06/20 06:34:38;;;;;;;17.20;13.70;;;;;;;23.83;63.77;98785.66;221455;1289;22568;-73
2023/06/20 06:39:43;;;;;;;15.10;13.40;;;;;;;24.08;63.11;98788.43;221455;1282;137920;-72
2023/06/20 06:44:59;;;;;;;13.80;12.40;;;;;;;24.26;62.46;98788.60;221460;1292;138013;-73
2023/06/20 06:50:02;;;;;;;18.40;12.50;;;;;;;24.45;62.09;98792.67;221511;1295;138433;-73
2023/06/20 06:55:06;;;;;;;12.60;10.60;;;;;;;24.69;61.53;98800.11;221743;1301;138304;-73
2023/06/20 07:00:12;;;;;;;15.10;10.90;;;;;;;24.94;60.33;98804.63;221552;1292;138429;-73
2023/06/20 07:05:15;;;;;;;11.90;10.70;;;;;;;25.16;59.56;98804.31;221966;1300;25332;-73
2023/06/20 07:10:20;;;;;;;13.10;10.40;;;;;;;25.39;59.15;98802.34;221726;1289;138042;-74
2023/06/20 07:15:23;;;;;;;11.90;10.70;;;;;;;25.58;58.39;98797.79;221541;1296;138238;-74
2023/06/20 07:20:34;;;;;;;11.90;10.80;;;;;;;25.75;57.86;98801.45;221364;1295;138191;-74
2023/06/20 07:25:40;;;;;;;14.90;11.60;;;;;;;25.83;57.33;98802.31;221685;1296;138188;-74
2023/06/20 07:30:51;;;;;;;14.90;12.20;;;;;;;25.84;57.20;98806.05;221549;1292;138245;-73
2023/06/20 07:36:01;;;;;;;14.60;12.80;;;;;;;26.00;57.12;98805.45;221822;1285;138205;-73
2023/06/20 07:41:03;;;;;;;13.30;11.80;;;;;;;26.11;56.44;98805.54;221829;1285;22619;-73
2023/06/20 07:46:05;;;;;;;14.30;11.80;;;;;;;26.33;56.93;98803.71;221571;1286;138094;-75
2023/06/20 07:51:09;;;;;;;13.60;11.30;;;;;;;26.65;56.52;98804.29;221294;1292;138007;-74
2023/06/20 07:56:11;;;;;;;12.40;11.10;;;;;;;26.94;56.30;98801.61;221521;1285;138348;-74
2023/06/20 08:01:14;;;;;;;11.90;10.90;;;;;;;27.15;55.37;98794.08;221005;1292;138190;-73
2023/06/20 08:06:27;;;;;;;13.20;11.40;;;;;;;27.37;54.50;98796.04;221518;1295;138332;-72
2023/06/20 08:11:49;;;;;;;13.00;11.80;;;;;;;27.55;54.06;98795.58;221352;1286;138146;-73
2023/06/20 08:16:51;;;;;;;12.50;11.30;;;;;;;27.82;53.91;98806.90;221462;1298;22696;-73
2023/06/20 08:21:55;;;;;;;12.70;10.80;;;;;;;28.01;53.37;98800.60;221107;1295;137847;-73
2023/06/20 08:27:05;;;;;;;11.60;10.60;;;;;;;28.17;53.10;98799.39;221492;1301;138229;-73
2023/06/20 08:32:11;;;;;;;11.40;9.80;;;;;;;28.22;52.03;98797.55;221644;1292;138233;-73
2023/06/20 08:37:13;;;;;;;11.70;10.40;;;;;;;28.25;51.13;98795.64;221502;1301;139130;-73
2023/06/20 08:42:17;;;;;;;12.10;10.90;;;;;;;28.34;51.31;98795.30;221617;1279;138206;-73
2023/06/20 08:47:20;;;;;;;12.60;11.40;;;;;;;28.48;51.03;98799.08;221486;1301;22565;-73
2023/06/20 08:52:43;;;;;;;10.60;9.70;;;;;;;28.69;50.90;98795.63;221636;1301;137937;-73
2023/06/20 08:57:45;;;;;;;10.70;9.70;;;;;;;28.90;49.76;98789.31;221823;1292;137835;-73
2023/06/20 09:02:48;;;;;;;11.90;10.60;;;;;;;29.02;49.95;98788.86;221792;1292;138417;-73
2023/06/20 09:08:05;;;;;;;12.70;10.40;;;;;;;29.26;49.70;98790.45;221764;1301;138166;-74
2023/06/20 09:13:12;;;;;;;11.20;10.00;;;;;;;29.52;49.47;98786.98;221770;1299;138217;-73
2023/06/20 09:18:24;;;;;;;11.10;10.10;;;;;;;29.76;48.89;98784.86;221795;1302;138333;-74
2023/06/20 09:23:48;;;;;;;11.20;10.10;;;;;;;29.84;48.29;98774.09;221555;1302;138163;-74
2023/06/20 09:29:12;;;;;;;9.60;8.60;;;;;;;30.03;48.02;98774.89;221704;1302;25313;-74
2023/06/20 09:34:16;;;;;;;12.70;10.50;;;;;;;30.03;47.04;98774.61;221645;1295;138811;-74
2023/06/20 09:39:24;;;;;;;11.10;10.00;;;;;;;30.11;47.06;98777.62;221591;1302;138101;-74
2023/06/20 09:44:50;;;;;;;10.40;9.50;;;;;;;30.28;46.67;98771.81;221509;1296;139687;-78
2023/06/20 09:49:57;;;;;;;10.30;9.50;;;;;;;30.38;45.97;98765.74;221706;1301;138126;-74
2023/06/20 09:55:00;;;;;;;10.20;9.30;;;;;;;30.49;45.74;98764.10;221611;1301;138152;-74
2023/06/20 10:00:11;;;;;;;11.00;9.90;;;;;;;30.72;46.22;98759.72;221674;1283;138449;-74
2023/06/20 10:05:18;;;;;;;10.10;9.30;;;;;;;30.91;45.18;98763.98;221951;1296;25422;-74
2023/06/20 10:10:20;;;;;;;9.70;8.90;;;;;;;30.86;44.55;98765.10;221615;1295;137745;-75
2023/06/20 10:15:41;;;;;;;11.30;8.80;;;;;;;30.94;44.68;98759.67;221673;1283;137860;-75
2023/06/20 10:21:07;;;;;;;10.80;9.50;;;;;;;30.85;43.52;98758.43;221689;1301;138116;-75
2023/06/20 10:26:11;;;;;;;15.10;10.00;;;;;;;30.86;44.08;98751.75;221513;1303;138004;-74
2023/06/20 10:31:13;;;;;;;11.50;9.00;;;;;;;31.10;44.52;98748.33;221515;1290;138280;-74
2023/06/20 10:36:16;;;;;;;9.80;8.80;;;;;;;31.40;44.29;98741.89;221545;1298;138226;-74
2023/06/20 10:41:23;;;;;;;9.40;8.60;;;;;;;31.56;43.73;98740.91;221768;1295;22552;-76
2023/06/20 10:46:50;;;;;;;10.50;9.40;;;;;;;31.78;43.32;98735.99;221621;1302;138356;-79
2023/06/20 10:51:55;;;;;;;9.90;8.90;;;;;;;31.89;42.84;98737.88;221764;1302;137810;-75
2023/06/20 10:56:57;;;;;;;25.80;10.60;;;;;;;32.02;42.98;98736.69;221415;1302;137677;-75
2023/06/20 11:01:59;;;;;;;14.60;9.40;;;;;;;32.24;42.59;98737.30;221622;1302;139179;-75
2023/06/20 11:07:07;;;;;;;19.80;10.00;;;;;;;32.29;42.21;98732.11;221768;1301;138090;-72
2023/06/20 11:12:12;;;;;;;36.30;11.20;;;;;;;32.36;41.95;98727.23;221819;1285;138167;-73
2023/06/20 11:17:14;;;;;;;10.70;9.60;;;;;;;32.38;42.11;98723.73;221903;1301;25319;-73
2023/06/20 11:22:17;;;;;;;10.20;9.40;;;;;;;32.44;42.14;98720.96;221719;1288;138986;-73
2023/06/20 11:27:19;;;;;;;11.60;9.70;;;;;;;32.48;41.74;98721.00;221785;1302;137975;-73
2023/06/20 11:32:23;;;;;;;10.30;9.40;;;;;;;32.65;42.28;98720.98;221844;1289;138039;-72
2023/06/20 11:37:26;;;;;;;13.50;9.40;;;;;;;32.74;41.59;98718.61;221876;1299;138108;-73
2023/06/20 11:42:34;;;;;;;9.80;9.00;;;;;;;32.56;41.14;98719.00;221804;1301;137972;-73
2023/06/20 11:47:36;;;;;;;9.80;8.90;;;;;;;32.28;41.09;98711.38;221785;1302;137931;-73
2023/06/20 11:52:40;;;;;;;12.00;10.50;;;;;;;32.27;41.73;98709.53;221860;1280;22620;-72
2023/06/20 11:57:43;;;;;;;15.60;10.00;;;;;;;32.40;41.96;98708.73;221844;1296;137891;-72
2023/06/20 12:02:46;;;;;;;25.40;11.00;;;;;;;32.58;41.25;98711.48;221769;1300;138398;-73
2023/06/20 12:07:49;;;;;;;10.20;9.20;;;;;;;32.58;41.42;98706.17;221820;1295;138389;-72
2023/06/20 12:12:51;;;;;;;10.60;9.50;;;;;;;32.82;42.15;98699.02;221856;1302;137996;-71
2023/06/20 12:17:53;;;;;;;12.10;9.80;;;;;;;33.05;41.39;98692.98;221717;1299;138212;-71
2023/06/20 12:22:58;;;;;;;10.80;9.90;;;;;;;33.16;41.49;98690.52;221701;1295;25348;-71
2023/06/20 12:28:01;;;;;;;11.50;10.10;;;;;;;33.12;40.83;98687.73;221297;1295;138623;-71
2023/06/20 12:33:03;;;;;;;10.10;9.30;;;;;;;33.06;41.14;98684.23;221458;1288;138020;-71
2023/06/20 12:38:05;;;;;;;12.70;10.20;;;;;;;33.28;41.04;98680.15;221820;1301;138235;-71
2023/06/20 12:43:10;;;;;;;10.70;9.80;;;;;;;33.24;40.54;98677.67;221360;1283;138423;-71
2023/06/20 12:48:12;;;;;;;12.70;9.80;;;;;;;33.15;40.73;98681.23;221410;1289;138539;-73
2023/06/20 12:53:14;;;;;;;10.90;10.00;;;;;;;33.19;41.05;98677.04;221711;1287;22545;-73
2023/06/20 12:58:16;;;;;;;10.40;9.60;;;;;;;33.31;41.08;98673.70;221563;1295;137852;-73
2023/06/20 13:03:18;;;;;;;10.90;10.00;;;;;;;33.38;41.24;98666.50;221478;1301;137969;-72
2023/06/20 13:08:20;;;;;;;11.80;10.80;;;;;;;33.46;41.36;98669.58;221426;1296;138262;-73
2023/06/20 13:13:24;;;;;;;10.60;9.60;;;;;;;33.44;40.69;98671.91;221594;1292;138273;-73
2023/06/20 13:18:26;;;;;;;10.60;9.70;;;;;;;33.20;40.78;98669.46;221829;1295;138188;-73
2023/06/20 13:23:28;;;;;;;10.70;9.80;;;;;;;32.89;40.78;98667.83;221820;1295;22795;-73
2023/06/20 13:28:30;;;;;;;14.30;10.40;;;;;;;32.64;41.18;98662.94;221622;1301;137795;-72
2023/06/20 13:33:32;;;;;;;9.70;8.90;;;;;;;32.45;41.57;98661.63;221751;1299;138151;-73
2023/06/20 13:38:34;;;;;;;11.00;10.10;;;;;;;32.46;41.76;98657.14;221855;1288;138359;-73
2023/06/20 13:43:36;;;;;;;10.80;10.00;;;;;;;32.41;41.84;98660.15;221710;1289;138274;-73
2023/06/20 13:48:38;;;;;;;10.30;9.60;;;;;;;32.45;42.18;98657.94;221667;1292;138296;-73
2023/06/20 13:53:41;;;;;;;11.00;10.10;;;;;;;32.64;42.48;98654.19;221823;1296;138065;-74
2023/06/20 13:58:43;;;;;;;11.80;10.80;;;;;;;33.14;42.80;98654.31;221546;1295;22557;-74
2023/06/20 14:03:45;;;;;;;10.10;9.40;;;;;;;33.49;41.74;98648.39;221853;1298;22611;-74
2023/06/20 14:08:47;;;;;;;11.20;10.20;;;;;;;33.68;41.57;98648.35;221811;1301;22581;-74
2023/06/20 14:13:49;;;;;;;10.20;9.40;;;;;;;33.58;41.10;98651.48;221736;1295;22586;-74
2023/06/20 14:18:51;;;;;;;10.70;9.90;;;;;;;33.40;41.30;98650.26;222020;1301;22689;-74
2023/06/20 14:23:53;;;;;;;10.40;9.50;;;;;;;33.13;41.02;98652.97;222055;1300;22559;-74
2023/06/20 14:28:56;;;;;;;10.90;9.90;;;;;;;33.11;41.62;98651.60;222346;1296;22598;-73
2023/06/20 14:33:58;;;;;;;11.30;10.10;;;;;;;33.10;41.76;98648.30;222195;1301;22594;-75
2023/06/20 14:39:00;;;;;;;10.20;9.10;;;;;;;33.06;41.32;98646.35;222238;1298;22572;-73
2023/06/20 14:44:03;;;;;;;10.40;9.60;;;;;;;32.97;41.10;98640.91;222285;1301;22568;-73
2023/06/20 14:49:12;;;;;;;10.20;9.40;;;;;;;32.88;41.40;98639.66;222333;1298;22572;-73
2023/06/20 14:54:17;;;;;;;10.30;9.30;;;;;;;32.84;41.56;98631.45;222238;1298;22599;-74
2023/06/20 14:59:19;;;;;;;10.60;9.70;;;;;;;32.98;41.73;98628.34;222283;1299;22577;-73
2023/06/20 15:04:24;;;;;;;10.50;9.70;;;;;;;33.03;41.33;98620.29;222169;1301;22597;-73
2023/06/20 15:09:26;;;;;;;10.80;9.80;;;;;;;33.03;41.36;98621.62;222296;1302;25268;-74
2023/06/20 15:14:28;;;;;;;11.40;10.50;;;;;;;32.87;41.23;98619.05;222329;1298;22757;-74
2023/06/20 15:19:30;;;;;;;11.40;10.50;;;;;;;32.84;41.49;98615.73;222272;1302;25274;-74
2023/06/20 15:24:33;;;;;;;10.30;9.50;;;;;;;33.02;41.47;98615.15;222117;1301;22584;-74
2023/06/20 15:29:35;;;;;;;11.50;10.40;;;;;;;33.12;40.96;98609.94;222182;1300;24285;-74
2023/06/20 15:34:37;;;;;;;11.30;10.30;;;;;;;33.01;41.41;98613.90;222184;1301;22616;-73
2023/06/20 15:39:39;;;;;;;11.00;10.10;;;;;;;32.94;41.91;98609.83;222328;1298;22576;-74
2023/06/20 15:44:41;;;;;;;10.70;9.80;;;;;;;32.80;42.19;98610.20;222162;1302;22824;-73
2023/06/20 15:49:43;;;;;;;10.70;9.90;;;;;;;32.52;42.93;98606.60;222275;1298;22564;-73
2023/06/20 15:54:45;;;;;;;17.90;16.40;;;;;;;32.29;42.90;98602.02;222332;1301;22601;-73
2023/06/20 15:59:49;;;;;;;11.40;10.50;;;;;;;32.10;43.10;98604.04;222150;1301;22619;-73
2023/06/20 16:04:51;;;;;;;10.70;10.20;;;;;;;31.95;44.11;98604.23;222087;1302;24265;-73
2023/06/20 16:09:54;;;;;;;11.00;10.00;;;;;;;31.76;44.83;98600.69;221967;1298;23614;-73
2023/06/20 16:14:57;;;;;;;11.40;10.30;;;;;;;31.69;44.99;98599.10;222171;1301;24287;-73
2023/06/20 16:20:06;;;;;;;10.70;9.90;;;;;;;31.63;45.07;98600.94;222130;1302;24435;-73
2023/06/20 16:25:08;;;;;;;11.50;10.60;;;;;;;31.51;45.46;98605.64;222209;1298;22598;-73
2023/06/20 16:30:10;;;;;;;10.90;10.00;;;;;;;31.39;45.86;98604.35;222048;1301;23310;-73
2023/06/20 16:35:12;;;;;;;13.50;12.20;;;;;;;31.36;45.83;98600.10;222252;1298;22567;-74
2023/06/20 16:40:14;;;;;;;15.00;13.50;;;;;;;31.41;45.62;98599.13;222223;1302;22675;-73
2023/06/20 16:45:17;;;;;;;12.50;11.40;;;;;;;31.47;45.20;98594.95;222109;1300;22635;-73
2023/06/20 16:50:19;;;;;;;14.80;13.40;;;;;;;31.60;44.96;98599.27;222166;1295;22595;-73
2023/06/20 16:55:21;;;;;;;11.80;10.80;;;;;;;31.67;45.51;98600.16;222128;1298;22588;-74
2023/06/20 17:00:23;;;;;;;11.00;10.20;;;;;;;31.59;45.60;98596.97;222221;1301;22575;-74
2023/06/20 17:05:26;;;;;;;10.30;9.40;;;;;;;31.47;45.20;98593.05;222223;1301;22639;-73
2023/06/20 17:10:27;;;;;;;11.10;10.20;;;;;;;31.38;45.08;98591.14;222221;1298;25268;-73
2023/06/20 17:15:30;;;;;;;11.90;10.90;;;;;;;31.35;44.89;98588.83;222276;1298;25323;-73
2023/06/20 17:20:32;;;;;;;10.90;9.80;;;;;;;31.64;45.07;98595.13;222226;1301;22560;-74
2023/06/20 17:25:34;;;;;;;10.60;9.70;;;;;;;32.01;44.79;98596.58;222160;1301;22585;-73
2023/06/20 17:30:36;;;;;;;10.30;9.50;;;;;;;32.12;44.25;98593.54;222287;1295;22580;-73
2023/06/20 17:35:38;;;;;;;10.50;9.70;;;;;;;31.90;44.16;98602.95;222285;1298;22665;-73
2023/06/20 17:40:41;;;;;;;10.80;9.90;;;;;;;31.79;44.41;98600.35;222184;1298;24278;-73
2023/06/20 17:45:43;;;;;;;11.40;10.50;;;;;;;32.16;44.43;98597.92;222214;1300;22565;-73
2023/06/20 17:50:45;;;;;;;10.40;9.70;;;;;;;32.21;44.21;98596.73;222173;1301;22645;-72
2023/06/20 17:55:47;;;;;;;11.00;9.70;;;;;;;31.94;43.83;98593.52;222005;1298;24448;-73
2023/06/20 18:00:49;;;;;;;10.90;9.80;;;;;;;31.46;44.43;98594.26;222261;1298;22492;-73
2023/06/20 18:05:51;;;;;;;13.30;12.20;;;;;;;31.07;45.24;98593.45;222267;1295;24283;-73
2023/06/20 18:10:53;;;;;;;12.00;10.90;;;;;;;30.66;45.57;98593.42;222210;1300;22615;-74
2023/06/20 18:15:55;;;;;;;11.10;10.10;;;;;;;30.26;45.62;98592.79;222015;1301;328095;-73
2023/06/20 18:20:58;;;;;;;12.10;11.10;;;;;;;29.91;46.11;98589.96;222160;1302;25440;-74
2023/06/20 18:26:00;;;;;;;13.30;11.90;;;;;;;29.60;46.90;98589.43;222228;1298;23331;-74
2023/06/20 18:31:02;;;;;;;14.50;11.70;;;;;;;29.27;47.51;98590.31;222279;1295;22688;-73
2023/06/20 18:36:07;;;;;;;14.60;12.30;;;;;;;28.91;48.32;98589.41;222194;1298;25412;-72
2023/06/20 18:41:09;;;;;;;13.60;12.10;;;;;;;28.57;48.81;98590.98;222305;1298;22710;-73
2023/06/20 18:46:14;;;;;;;15.60;11.80;;;;;;;28.24;49.48;98594.83;222011;1295;22561;-73
2023/06/20 18:51:21;;;;;;;17.80;15.40;;;;;;;27.90;50.02;98598.29;222330;1302;22568;-73
2023/06/20 18:56:24;;;;;;;18.70;16.70;;;;;;;27.57;50.39;98604.50;222220;1302;22571;-73
2023/06/20 19:01:26;;;;;;;18.00;16.10;;;;;;;27.24;50.98;98606.44;222282;1301;22562;-73
2023/06/20 19:06:28;;;;;;;18.50;16.30;;;;;;;26.92;51.35;98614.27;222218;1301;22595;-75
2023/06/20 19:11:30;;;;;;;16.80;15.10;;;;;;;26.62;51.54;98616.36;222248;1301;22572;-73
2023/06/20 19:16:32;;;;;;;17.10;15.30;;;;;;;26.34;52.00;98623.20;222268;1300;22573;-73
2023/06/20 19:21:34;;;;;;;18.20;16.30;;;;;;;26.09;52.94;98631.20;222225;1301;22564;-73
2023/06/20 19:26:36;;;;;;;16.80;15.10;;;;;;;25.85;53.43;98632.40;222335;1301;22579;-73
2023/06/20 19:31:40;;;;;;;17.20;15.40;;;;;;;25.61;53.96;98643.35;222316;1298;22596;-73
2023/06/20 19:36:42;;;;;;;18.30;15.60;;;;;;;25.39;54.48;98648.23;222139;1303;22865;-73
2023/06/20 19:41:44;;;;;;;18.00;15.70;;;;;;;25.17;55.10;98649.07;222308;1295;22565;-74
2023/06/20 19:46:49;;;;;;;18.10;16.10;;;;;;;24.96;55.82;98650.79;222189;1302;22728;-73
2023/06/20 19:51:52;;;;;;;18.10;16.30;;;;;;;24.74;56.71;98653.77;222186;1301;22565;-74
2023/06/20 19:56:55;;;;;;;19.50;16.20;;;;;;;24.52;56.92;98653.99;222336;1298;22569;-74
2023/06/20 20:01:59;;;;;;;21.80;15.10;;;;;;;24.32;57.23;98654.14;222014;1301;22638;-72
2023/06/20 20:07:05;;;;;;;19.90;16.10;;;;;;;24.13;57.70;98654.93;222201;1298;22585;-73
2023/06/20 20:12:09;;;;;;;17.90;16.20;;;;;;;23.95;58.36;98655.14;221995;1302;25436;-73
2023/06/20 20:17:12;;;;;;;18.30;16.50;;;;;;;23.82;58.86;98650.35;222248;1300;23295;-72
2023/06/20 20:22:17;;;;;;;18.70;17.00;;;;;;;23.68;59.56;98647.55;222197;1302;22574;-72
2023/06/20 20:27:19;;;;;;;23.20;20.70;;;;;;;23.54;60.24;98654.71;222158;1301;22645;-73
2023/06/20 20:32:24;;;;;;;20.50;18.50;;;;;;;23.38;60.93;98654.14;222213;1301;22598;-73
2023/06/20 20:37:26;;;;;;;20.00;18.10;;;;;;;23.19;61.38;98654.73;222192;1301;22568;-72
2023/06/20 20:42:30;;;;;;;21.00;18.60;;;;;;;23.01;61.97;98657.14;222207;1302;23091;-73
2023/06/20 20:47:32;;;;;;;19.60;17.80;;;;;;;22.86;62.37;98662.59;222220;1295;22566;-73
2023/06/20 20:52:35;;;;;;;18.10;16.30;;;;;;;22.73;62.69;98665.31;222090;1301;26048;-73
2023/06/20 20:57:36;;;;;;;18.80;16.60;;;;;;;22.59;62.73;98657.39;222090;1297;22565;-72
2023/06/20 21:02:39;;;;;;;18.30;16.40;;;;;;;22.46;63.10;98657.76;222176;1298;22582;-72
2023/06/20 21:07:44;;;;;;;18.40;16.10;;;;;;;22.35;63.29;98654.47;222052;1301;22645;-72
2023/06/20 21:12:46;;;;;;;18.30;16.40;;;;;;;22.25;63.46;98654.56;222195;1300;22555;-72
2023/06/20 21:17:49;;;;;;;16.30;14.70;;;;;;;22.19;63.70;98654.44;222196;1302;22561;-72
2023/06/20 21:22:51;;;;;;;18.40;16.50;;;;;;;22.15;63.89;98658.40;222222;1298;22568;-73
2023/06/20 21:27:54;;;;;;;16.60;15.10;;;;;;;22.10;64.05;98653.62;222172;1297;22581;-73
2023/06/20 21:33:06;;;;;;;18.00;16.10;;;;;;;22.05;64.16;98655.33;221989;1302;24470;-72
2023/06/20 21:38:09;;;;;;;17.30;15.20;;;;;;;22.00;64.17;98660.95;222217;1301;22579;-74
2023/06/20 21:43:11;;;;;;;16.50;15.00;;;;;;;21.93;64.48;98656.84;222228;1298;25960;-73
2023/06/20 21:48:14;;;;;;;16.60;15.00;;;;;;;21.86;64.42;98655.61;222211;1302;23770;-73
2023/06/20 21:53:28;;;;;;;17.20;15.50;;;;;;;21.78;64.54;98657.16;222307;1296;22584;-73
2023/06/20 21:58:30;;;;;;;16.40;14.90;;;;;;;21.70;64.83;98662.48;222330;1298;22577;-72
2023/06/20 22:03:32;;;;;;;17.40;15.40;;;;;;;21.63;65.03;98665.65;222315;1298;22572;-73
2023/06/20 22:08:34;;;;;;;16.70;15.00;;;;;;;21.56;65.24;98670.11;222300;1295;22592;-72
2023/06/20 22:13:43;;;;;;;19.00;16.30;;;;;;;21.47;65.56;98681.27;222254;1302;22571;-73
2023/06/20 22:18:47;;;;;;;17.80;15.90;;;;;;;21.38;65.73;98684.06;222241;1301;22591;-73
2023/06/20 22:23:51;;;;;;;15.80;14.30;;;;;;;21.29;65.78;98686.00;222066;1301;22593;-73
2023/06/20 22:28:53;;;;;;;16.00;14.50;;;;;;;21.21;65.79;98678.58;222086;1298;22577;-73
2023/06/20 22:33:54;;;;;;;17.80;15.20;;;;;;;21.13;65.87;98674.15;222323;1295;22593;-73
2023/06/20 22:38:56;;;;;;;21.90;16.90;;;;;;;21.07;66.06;98678.57;222314;1302;22562;-73
2023/06/20 22:43:59;;;;;;;17.00;15.20;;;;;;;21.03;66.21;98681.77;222135;1302;24914;-73
2023/06/20 22:49:06;;;;;;;17.10;15.40;;;;;;;21.00;66.29;98682.02;222039;1298;22580;-73
2023/06/20 22:54:07;;;;;;;16.40;14.70;;;;;;;21.01;66.65;98676.28;222198;1302;22572;-73
2023/06/20 22:59:10;;;;;;;18.00;15.70;;;;;;;21.04;66.63;98679.15;222013;1302;22549;-73
2023/06/20 23:04:11;;;;;;;16.40;14.50;;;;;;;21.05;66.52;98677.11;222117;1302;22654;-73
2023/06/20 23:09:14;;;;;;;15.60;14.00;;;;;;;21.08;66.51;98668.63;222178;1302;22674;-73
2023/06/20 23:14:21;;;;;;;16.40;14.40;;;;;;;21.09;66.53;98659.39;222215;1302;22690;-73
2023/06/20 23:19:23;;;;;;;16.90;15.00;;;;;;;21.10;66.57;98661.70;222214;1302;22575;-73